sensor_id;sensor_type;location;lat;lon;timestamp;temperature;humidity
35258;DHT22;21385;50.878;8.050;2023-05-07T00:01:56;15.20;99.90
35258;DHT22;21385;50.878;8.050;2023-05-07T00:04:22;15.20;99.90
35258;DHT22;21385;50.878;8.050;2023-05-07T00:06:48;15.20;99.90
35258;DHT22;21385;50.878;8.050;2023-05-07T00:09:13;15.30;99.90
35258;DHT22;21385;50.878;8.050;2023-05-07T00:11:39;15.30;99.90
35258;DHT22;21385;50.878;8.050;2023-05-07T00:14:05;15.30;99.90
35258;DHT22;21385;50.878;8.050;2023-05-07T00:16:31;15.30;99.90
35258;DHT22;21385;50.878;8.050;2023-05-07T00:18:57;15.30;99.90
35258;DHT22;21385;50.878;8.050;2023-05-07T00:21:23;15.30;99.90
35258;DHT22;21385;50.878;8.050;2023-05-07T00:23:52;15.30;99.90
35258;DHT22;21385;50.878;8.050;2023-05-07T00:26:18;15.30;99.90
35258;DHT22;21385;50.878;8.050;2023-05-07T00:28:43;15.30;99.90
35258;DHT22;21385;50.878;8.050;2023-05-07T00:31:09;15.30;99.90
35258;DHT22;21385;50.878;8.050;2023-05-07T00:33:35;15.30;99.90
35258;DHT22;21385;50.878;8.050;2023-05-07T00:36:00;15.30;99.90
35258;DHT22;21385;50.878;8.050;2023-05-07T00:38:27;15.30;99.90
35258;DHT22;21385;50.878;8.050;2023-05-07T00:40:52;15.20;99.90
35258;DHT22;21385;50.878;8.050;2023-05-07T00:43:18;15.30;99.90
35258;DHT22;21385;50.878;8.050;2023-05-07T00:45:44;15.30;99.90
35258;DHT22;21385;50.878;8.050;2023-05-07T00:48:10;15.30;99.90
35258;DHT22;21385;50.878;8.050;2023-05-07T00:50:35;15.30;99.90
35258;DHT22;21385;50.878;8.050;2023-05-07T00:53:01;15.30;99.90
35258;DHT22;21385;50.878;8.050;2023-05-07T00:55:27;15.30;99.90
35258;DHT22;21385;50.878;8.050;2023-05-07T00:57:52;15.20;99.90
35258;DHT22;21385;50.878;8.050;2023-05-07T01:00:19;15.20;99.90
35258;DHT22;21385;50.878;8.050;2023-05-07T01:02:45;15.20;99.90
35258;DHT22;21385;50.878;8.050;2023-05-07T01:05:13;15.20;99.90
35258;DHT22;21385;50.878;8.050;2023-05-07T01:07:40;15.10;99.90
35258;DHT22;21385;50.878;8.050;2023-05-07T01:10:08;15.10;99.90
35258;DHT22;21385;50.878;8.050;2023-05-07T01:12:37;15.10;99.90
35258;DHT22;21385;50.878;8.050;2023-05-07T01:15:04;15.00;99.90
35258;DHT22;21385;50.878;8.050;2023-05-07T01:17:40;15.00;99.90
35258;DHT22;21385;50.878;8.050;2023-05-07T01:20:07;15.00;99.90
35258;DHT22;21385;50.878;8.050;2023-05-07T01:22:34;14.90;99.90
35258;DHT22;21385;50.878;8.050;2023-05-07T01:25:00;14.90;99.90
35258;DHT22;21385;50.878;8.050;2023-05-07T01:27:27;15.00;99.90
35258;DHT22;21385;50.878;8.050;2023-05-07T01:29:53;14.90;99.90
35258;DHT22;21385;50.878;8.050;2023-05-07T01:35:43;14.80;99.90
35258;DHT22;21385;50.878;8.050;2023-05-07T01:38:09;14.80;99.90
35258;DHT22;21385;50.878;8.050;2023-05-07T01:40:35;14.80;99.90
35258;DHT22;21385;50.878;8.050;2023-05-07T01:43:02;14.80;99.90
35258;DHT22;21385;50.878;8.050;2023-05-07T01:45:30;14.80;99.90
35258;DHT22;21385;50.878;8.050;2023-05-07T01:47:57;14.80;99.90
35258;DHT22;21385;50.878;8.050;2023-05-07T01:50:23;14.80;99.90
35258;DHT22;21385;50.878;8.050;2023-05-07T01:52:50;14.70;99.90
35258;DHT22;21385;50.878;8.050;2023-05-07T01:55:16;14.70;99.90
35258;DHT22;21385;50.878;8.050;2023-05-07T01:57:42;14.70;99.90
35258;DHT22;21385;50.878;8.050;2023-05-07T02:00:08;14.70;99.90
35258;DHT22;21385;50.878;8.050;2023-05-07T02:02:34;14.70;99.90
35258;DHT22;21385;50.878;8.050;2023-05-07T02:05:00;14.80;99.90
35258;DHT22;21385;50.878;8.050;2023-05-07T02:07:27;14.80;99.90
35258;DHT22;21385;50.878;8.050;2023-05-07T02:09:53;14.80;99.90
35258;DHT22;21385;50.878;8.050;2023-05-07T02:12:19;14.80;99.90
35258;DHT22;21385;50.878;8.050;2023-05-07T02:14:44;14.80;99.90
35258;DHT22;21385;50.878;8.050;2023-05-07T02:17:10;14.80;99.90
35258;DHT22;21385;50.878;8.050;2023-05-07T02:19:35;14.80;99.90
35258;DHT22;21385;50.878;8.050;2023-05-07T02:22:01;14.90;99.90
35258;DHT22;21385;50.878;8.050;2023-05-07T02:24:27;14.80;99.90
35258;DHT22;21385;50.878;8.050;2023-05-07T02:26:52;14.80;99.90
35258;DHT22;21385;50.878;8.050;2023-05-07T02:29:18;14.70;99.90
35258;DHT22;21385;50.878;8.050;2023-05-07T02:31:43;14.80;99.90
35258;DHT22;21385;50.878;8.050;2023-05-07T02:34:09;14.80;99.90
35258;DHT22;21385;50.878;8.050;2023-05-07T02:36:34;14.80;99.90
35258;DHT22;21385;50.878;8.050;2023-05-07T02:39:00;14.80;99.90
35258;DHT22;21385;50.878;8.050;2023-05-07T02:41:26;14.90;99.90
35258;DHT22;21385;50.878;8.050;2023-05-07T02:43:53;14.90;99.90
35258;DHT22;21385;50.878;8.050;2023-05-07T02:46:19;14.80;99.90
35258;DHT22;21385;50.878;8.050;2023-05-07T02:48:44;14.80;99.90
35258;DHT22;21385;50.878;8.050;2023-05-07T02:51:10;14.80;99.90
35258;DHT22;21385;50.878;8.050;2023-05-07T02:53:35;14.80;99.90
35258;DHT22;21385;50.878;8.050;2023-05-07T02:56:02;14.80;99.90
35258;DHT22;21385;50.878;8.050;2023-05-07T02:58:28;14.80;99.90
35258;DHT22;21385;50.878;8.050;2023-05-07T03:00:53;14.80;99.90
35258;DHT22;21385;50.878;8.050;2023-05-07T03:03:22;14.70;99.90
35258;DHT22;21385;50.878;8.050;2023-05-07T03:05:47;14.70;99.90
35258;DHT22;21385;50.878;8.050;2023-05-07T03:08:13;14.70;99.90
35258;DHT22;21385;50.878;8.050;2023-05-07T03:10:39;14.70;99.90
35258;DHT22;21385;50.878;8.050;2023-05-07T03:13:05;14.80;99.90
35258;DHT22;21385;50.878;8.050;2023-05-07T03:15:30;14.80;99.90
35258;DHT22;21385;50.878;8.050;2023-05-07T03:17:56;14.80;99.90
35258;DHT22;21385;50.878;8.050;2023-05-07T03:20:22;14.80;99.90
35258;DHT22;21385;50.878;8.050;2023-05-07T03:22:48;14.80;99.90
35258;DHT22;21385;50.878;8.050;2023-05-07T03:25:13;14.80;99.90
35258;DHT22;21385;50.878;8.050;2023-05-07T03:27:40;14.80;99.90
35258;DHT22;21385;50.878;8.050;2023-05-07T03:30:07;14.80;99.90
35258;DHT22;21385;50.878;8.050;2023-05-07T03:32:34;14.80;99.90
35258;DHT22;21385;50.878;8.050;2023-05-07T03:35:00;14.70;99.90
35258;DHT22;21385;50.878;8.050;2023-05-07T03:37:26;14.70;99.90
35258;DHT22;21385;50.878;8.050;2023-05-07T03:39:52;14.60;99.90
35258;DHT22;21385;50.878;8.050;2023-05-07T03:42:17;14.60;99.90
35258;DHT22;21385;50.878;8.050;2023-05-07T03:44:43;14.60;99.90
35258;DHT22;21385;50.878;8.050;2023-05-07T03:47:08;14.60;99.90
35258;DHT22;21385;50.878;8.050;2023-05-07T03:49:35;14.60;99.90
35258;DHT22;21385;50.878;8.050;2023-05-07T03:52:01;14.60;99.90
35258;DHT22;21385;50.878;8.050;2023-05-07T03:54:27;14.60;99.90
35258;DHT22;21385;50.878;8.050;2023-05-07T03:56:52;14.50;99.90
35258;DHT22;21385;50.878;8.050;2023-05-07T03:59:18;14.60;99.90
35258;DHT22;21385;50.878;8.050;2023-05-07T04:01:43;14.50;99.90
35258;DHT22;21385;50.878;8.050;2023-05-07T04:04:09;14.50;99.90
35258;DHT22;21385;50.878;8.050;2023-05-07T04:06:34;14.50;99.90
35258;DHT22;21385;50.878;8.050;2023-05-07T04:09:00;14.50;99.90
35258;DHT22;21385;50.878;8.050;2023-05-07T04:11:26;14.50;99.90
35258;DHT22;21385;50.878;8.050;2023-05-07T04:13:51;14.50;99.90
35258;DHT22;21385;50.878;8.050;2023-05-07T04:16:17;14.50;99.90
35258;DHT22;21385;50.878;8.050;2023-05-07T04:18:43;14.50;99.90
35258;DHT22;21385;50.878;8.050;2023-05-07T04:21:19;14.50;99.90
35258;DHT22;21385;50.878;8.050;2023-05-07T04:23:46;14.50;99.90
35258;DHT22;21385;50.878;8.050;2023-05-07T04:26:12;14.60;99.90
35258;DHT22;21385;50.878;8.050;2023-05-07T04:28:38;14.60;99.90
35258;DHT22;21385;50.878;8.050;2023-05-07T04:31:04;14.60;99.90
35258;DHT22;21385;50.878;8.050;2023-05-07T04:33:30;14.60;99.90
35258;DHT22;21385;50.878;8.050;2023-05-07T04:35:56;14.60;99.90
35258;DHT22;21385;50.878;8.050;2023-05-07T04:38:22;14.60;99.90
35258;DHT22;21385;50.878;8.050;2023-05-07T04:40:49;14.70;99.90
35258;DHT22;21385;50.878;8.050;2023-05-07T04:43:14;14.70;99.90
35258;DHT22;21385;50.878;8.050;2023-05-07T04:45:41;14.70;99.90
35258;DHT22;21385;50.878;8.050;2023-05-07T04:48:08;14.70;99.90
35258;DHT22;21385;50.878;8.050;2023-05-07T04:50:34;14.70;99.90
35258;DHT22;21385;50.878;8.050;2023-05-07T04:52:59;14.60;99.90
35258;DHT22;21385;50.878;8.050;2023-05-07T04:55:25;14.70;99.90
35258;DHT22;21385;50.878;8.050;2023-05-07T04:57:52;14.70;99.90
35258;DHT22;21385;50.878;8.050;2023-05-07T05:00:18;14.60;99.90
35258;DHT22;21385;50.878;8.050;2023-05-07T05:02:45;14.70;99.90
35258;DHT22;21385;50.878;8.050;2023-05-07T05:05:10;14.70;99.90
35258;DHT22;21385;50.878;8.050;2023-05-07T05:07:36;14.80;99.90
35258;DHT22;21385;50.878;8.050;2023-05-07T05:10:02;14.90;99.90
35258;DHT22;21385;50.878;8.050;2023-05-07T05:12:29;14.90;99.90
35258;DHT22;21385;50.878;8.050;2023-05-07T05:14:55;14.90;99.90
35258;DHT22;21385;50.878;8.050;2023-05-07T05:17:21;15.00;99.90
35258;DHT22;21385;50.878;8.050;2023-05-07T05:19:46;15.00;99.90
35258;DHT22;21385;50.878;8.050;2023-05-07T05:22:12;15.00;99.90
35258;DHT22;21385;50.878;8.050;2023-05-07T05:24:38;15.00;99.90
35258;DHT22;21385;50.878;8.050;2023-05-07T05:27:05;15.10;99.90
35258;DHT22;21385;50.878;8.050;2023-05-07T05:29:30;15.10;99.90
35258;DHT22;21385;50.878;8.050;2023-05-07T05:31:57;15.10;99.90
35258;DHT22;21385;50.878;8.050;2023-05-07T05:34:22;15.10;99.90
35258;DHT22;21385;50.878;8.050;2023-05-07T05:36:48;15.10;99.90
35258;DHT22;21385;50.878;8.050;2023-05-07T05:39:14;15.10;99.90
35258;DHT22;21385;50.878;8.050;2023-05-07T05:41:39;15.20;99.90
35258;DHT22;21385;50.878;8.050;2023-05-07T05:44:05;15.20;99.90
35258;DHT22;21385;50.878;8.050;2023-05-07T05:46:31;15.20;99.90
35258;DHT22;21385;50.878;8.050;2023-05-07T05:48:57;15.30;99.90
35258;DHT22;21385;50.878;8.050;2023-05-07T05:51:22;15.40;99.90
35258;DHT22;21385;50.878;8.050;2023-05-07T05:53:48;15.40;99.90
35258;DHT22;21385;50.878;8.050;2023-05-07T05:56:15;15.50;99.90
35258;DHT22;21385;50.878;8.050;2023-05-07T05:58:40;15.60;99.90
35258;DHT22;21385;50.878;8.050;2023-05-07T06:01:06;15.60;99.90
35258;DHT22;21385;50.878;8.050;2023-05-07T06:03:32;15.70;99.90
35258;DHT22;21385;50.878;8.050;2023-05-07T06:05:58;15.70;99.90
35258;DHT22;21385;50.878;8.050;2023-05-07T06:08:25;15.80;99.90
35258;DHT22;21385;50.878;8.050;2023-05-07T06:10:50;15.90;99.90
35258;DHT22;21385;50.878;8.050;2023-05-07T06:13:16;15.90;99.90
35258;DHT22;21385;50.878;8.050;2023-05-07T06:15:42;16.00;99.90
35258;DHT22;21385;50.878;8.050;2023-05-07T06:18:07;16.10;99.90
35258;DHT22;21385;50.878;8.050;2023-05-07T06:20:33;16.10;99.90
35258;DHT22;21385;50.878;8.050;2023-05-07T06:22:59;16.10;99.90
35258;DHT22;21385;50.878;8.050;2023-05-07T06:25:24;16.20;99.90
35258;DHT22;21385;50.878;8.050;2023-05-07T06:27:50;16.20;99.90
35258;DHT22;21385;50.878;8.050;2023-05-07T06:30:16;16.30;99.90
35258;DHT22;21385;50.878;8.050;2023-05-07T06:32:41;16.40;99.90
35258;DHT22;21385;50.878;8.050;2023-05-07T06:35:07;16.40;99.90
35258;DHT22;21385;50.878;8.050;2023-05-07T06:37:33;16.50;99.90
35258;DHT22;21385;50.878;8.050;2023-05-07T06:39:58;16.50;99.90
35258;DHT22;21385;50.878;8.050;2023-05-07T06:42:24;16.60;99.90
35258;DHT22;21385;50.878;8.050;2023-05-07T06:44:50;16.50;99.90
35258;DHT22;21385;50.878;8.050;2023-05-07T06:47:15;16.60;99.90
35258;DHT22;21385;50.878;8.050;2023-05-07T06:49:41;16.60;99.90
35258;DHT22;21385;50.878;8.050;2023-05-07T06:52:07;16.70;99.90
35258;DHT22;21385;50.878;8.050;2023-05-07T06:54:32;16.70;99.90
35258;DHT22;21385;50.878;8.050;2023-05-07T06:56:58;16.70;99.90
35258;DHT22;21385;50.878;8.050;2023-05-07T06:59:24;16.80;99.90
35258;DHT22;21385;50.878;8.050;2023-05-07T07:01:49;17.00;99.90
35258;DHT22;21385;50.878;8.050;2023-05-07T07:04:15;17.10;99.90
35258;DHT22;21385;50.878;8.050;2023-05-07T07:06:41;17.20;99.90
35258;DHT22;21385;50.878;8.050;2023-05-07T07:09:06;17.20;99.90
35258;DHT22;21385;50.878;8.050;2023-05-07T07:11:32;17.30;99.90
35258;DHT22;21385;50.878;8.050;2023-05-07T07:13:58;17.40;99.90
35258;DHT22;21385;50.878;8.050;2023-05-07T07:16:24;17.50;99.90
35258;DHT22;21385;50.878;8.050;2023-05-07T07:18:50;17.60;99.90
35258;DHT22;21385;50.878;8.050;2023-05-07T07:21:16;17.70;99.90
35258;DHT22;21385;50.878;8.050;2023-05-07T07:23:41;17.70;99.90
35258;DHT22;21385;50.878;8.050;2023-05-07T07:26:07;17.80;99.90
35258;DHT22;21385;50.878;8.050;2023-05-07T07:28:33;17.90;99.90
35258;DHT22;21385;50.878;8.050;2023-05-07T07:30:58;18.00;99.90
35258;DHT22;21385;50.878;8.050;2023-05-07T07:33:24;18.00;99.90
35258;DHT22;21385;50.878;8.050;2023-05-07T07:35:49;18.20;99.90
35258;DHT22;21385;50.878;8.050;2023-05-07T07:38:15;18.20;99.90
35258;DHT22;21385;50.878;8.050;2023-05-07T07:40:41;18.40;99.90
35258;DHT22;21385;50.878;8.050;2023-05-07T07:43:07;18.50;99.90
35258;DHT22;21385;50.878;8.050;2023-05-07T07:45:32;18.50;99.90
35258;DHT22;21385;50.878;8.050;2023-05-07T07:47:58;18.60;99.90
35258;DHT22;21385;50.878;8.050;2023-05-07T07:50:24;18.60;99.90
35258;DHT22;21385;50.878;8.050;2023-05-07T07:52:49;18.60;99.90
35258;DHT22;21385;50.878;8.050;2023-05-07T07:55:15;18.60;99.90
35258;DHT22;21385;50.878;8.050;2023-05-07T07:57:46;18.70;99.90
35258;DHT22;21385;50.878;8.050;2023-05-07T08:00:12;18.70;99.90
35258;DHT22;21385;50.878;8.050;2023-05-07T08:02:38;18.80;99.90
35258;DHT22;21385;50.878;8.050;2023-05-07T08:05:03;18.80;99.90
35258;DHT22;21385;50.878;8.050;2023-05-07T08:07:29;18.80;99.90
35258;DHT22;21385;50.878;8.050;2023-05-07T08:09:55;18.80;99.90
35258;DHT22;21385;50.878;8.050;2023-05-07T08:12:20;18.80;99.90
35258;DHT22;21385;50.878;8.050;2023-05-07T08:14:46;19.00;99.90
35258;DHT22;21385;50.878;8.050;2023-05-07T08:17:12;18.90;99.90
35258;DHT22;21385;50.878;8.050;2023-05-07T08:22:04;19.10;99.90
35258;DHT22;21385;50.878;8.050;2023-05-07T08:24:30;19.20;99.90
35258;DHT22;21385;50.878;8.050;2023-05-07T08:26:56;19.30;99.90
35258;DHT22;21385;50.878;8.050;2023-05-07T08:29:22;19.40;99.90
35258;DHT22;21385;50.878;8.050;2023-05-07T08:31:47;19.50;99.90
35258;DHT22;21385;50.878;8.050;2023-05-07T08:34:13;19.50;99.90
35258;DHT22;21385;50.878;8.050;2023-05-07T08:36:38;19.60;99.90
35258;DHT22;21385;50.878;8.050;2023-05-07T08:39:07;19.70;99.90
35258;DHT22;21385;50.878;8.050;2023-05-07T08:41:32;19.80;99.90
35258;DHT22;21385;50.878;8.050;2023-05-07T08:43:58;19.80;99.90
35258;DHT22;21385;50.878;8.050;2023-05-07T08:46:30;20.00;99.90
35258;DHT22;21385;50.878;8.050;2023-05-07T08:48:56;20.00;99.90
35258;DHT22;21385;50.878;8.050;2023-05-07T08:51:22;20.00;99.90
35258;DHT22;21385;50.878;8.050;2023-05-07T08:53:49;20.10;99.90
35258;DHT22;21385;50.878;8.050;2023-05-07T08:56:15;20.20;99.90
35258;DHT22;21385;50.878;8.050;2023-05-07T08:58:42;20.40;99.90
35258;DHT22;21385;50.878;8.050;2023-05-07T09:01:15;20.40;99.90
35258;DHT22;21385;50.878;8.050;2023-05-07T09:03:44;20.50;99.90
35258;DHT22;21385;50.878;8.050;2023-05-07T09:06:10;20.50;99.90
35258;DHT22;21385;50.878;8.050;2023-05-07T09:08:36;20.50;99.90
35258;DHT22;21385;50.878;8.050;2023-05-07T09:11:02;20.60;99.90
35258;DHT22;21385;50.878;8.050;2023-05-07T09:13:28;20.50;99.90
35258;DHT22;21385;50.878;8.050;2023-05-07T09:15:54;20.60;99.90
35258;DHT22;21385;50.878;8.050;2023-05-07T09:18:20;20.60;99.90
35258;DHT22;21385;50.878;8.050;2023-05-07T09:20:45;20.70;99.90
35258;DHT22;21385;50.878;8.050;2023-05-07T09:23:11;20.90;99.90
35258;DHT22;21385;50.878;8.050;2023-05-07T09:25:37;21.00;99.90
35258;DHT22;21385;50.878;8.050;2023-05-07T09:28:04;21.10;99.90
35258;DHT22;21385;50.878;8.050;2023-05-07T09:30:31;21.30;99.90
35258;DHT22;21385;50.878;8.050;2023-05-07T09:33:02;21.50;99.90
35258;DHT22;21385;50.878;8.050;2023-05-07T09:35:28;21.70;99.90
35258;DHT22;21385;50.878;8.050;2023-05-07T09:37:55;21.90;99.90
35258;DHT22;21385;50.878;8.050;2023-05-07T09:40:26;21.90;99.90
35258;DHT22;21385;50.878;8.050;2023-05-07T09:42:52;22.10;99.90
35258;DHT22;21385;50.878;8.050;2023-05-07T09:45:36;22.20;99.90
35258;DHT22;21385;50.878;8.050;2023-05-07T09:48:05;22.30;99.90
35258;DHT22;21385;50.878;8.050;2023-05-07T09:50:36;22.30;99.90
35258;DHT22;21385;50.878;8.050;2023-05-07T09:53:03;22.30;99.90
35258;DHT22;21385;50.878;8.050;2023-05-07T09:55:29;22.40;99.90
35258;DHT22;21385;50.878;8.050;2023-05-07T09:57:57;22.40;99.90
35258;DHT22;21385;50.878;8.050;2023-05-07T10:00:22;22.60;99.90
35258;DHT22;21385;50.878;8.050;2023-05-07T10:02:50;22.80;99.90
35258;DHT22;21385;50.878;8.050;2023-05-07T10:05:18;23.10;99.90
35258;DHT22;21385;50.878;8.050;2023-05-07T10:07:46;23.30;99.90
35258;DHT22;21385;50.878;8.050;2023-05-07T10:10:12;23.60;99.50
35258;DHT22;21385;50.878;8.050;2023-05-07T10:12:38;23.80;98.30
35258;DHT22;21385;50.878;8.050;2023-05-07T10:15:06;23.80;98.60
35258;DHT22;21385;50.878;8.050;2023-05-07T10:17:38;23.80;98.00
35258;DHT22;21385;50.878;8.050;2023-05-07T10:20:04;23.90;97.90
35258;DHT22;21385;50.878;8.050;2023-05-07T10:22:44;24.00;97.90
35258;DHT22;21385;50.878;8.050;2023-05-07T10:27:46;24.10;97.20
35258;DHT22;21385;50.878;8.050;2023-05-07T10:30:23;24.20;97.10
35258;DHT22;21385;50.878;8.050;2023-05-07T10:32:55;24.20;96.90
35258;DHT22;21385;50.878;8.050;2023-05-07T10:35:25;24.30;96.70
35258;DHT22;21385;50.878;8.050;2023-05-07T10:37:52;24.30;94.70
35258;DHT22;21385;50.878;8.050;2023-05-07T10:40:19;24.20;94.80
35258;DHT22;21385;50.878;8.050;2023-05-07T10:42:59;24.10;94.00
35258;DHT22;21385;50.878;8.050;2023-05-07T10:45:26;24.00;93.40
35258;DHT22;21385;50.878;8.050;2023-05-07T10:48:13;24.00;93.30
35258;DHT22;21385;50.878;8.050;2023-05-07T10:50:43;24.00;94.40
35258;DHT22;21385;50.878;8.050;2023-05-07T10:55:46;24.10;94.90
35258;DHT22;21385;50.878;8.050;2023-05-07T10:58:32;24.10;94.80
35258;DHT22;21385;50.878;8.050;2023-05-07T11:01:00;24.10;94.00
35258;DHT22;21385;50.878;8.050;2023-05-07T11:03:27;24.20;94.30
35258;DHT22;21385;50.878;8.050;2023-05-07T11:06:12;24.30;95.40
35258;DHT22;21385;50.878;8.050;2023-05-07T11:11:19;24.60;95.00
35258;DHT22;21385;50.878;8.050;2023-05-07T11:13:48;24.60;94.00
35258;DHT22;21385;50.878;8.050;2023-05-07T11:16:24;24.70;93.40
35258;DHT22;21385;50.878;8.050;2023-05-07T11:18:52;24.60;93.40
35258;DHT22;21385;50.878;8.050;2023-05-07T11:21:40;24.50;93.00
35258;DHT22;21385;50.878;8.050;2023-05-07T11:24:10;24.60;93.60
35258;DHT22;21385;50.878;8.050;2023-05-07T11:26:49;24.70;93.60
35258;DHT22;21385;50.878;8.050;2023-05-07T11:31:41;24.60;93.20
35258;DHT22;21385;50.878;8.050;2023-05-07T11:34:08;24.60;93.20
35258;DHT22;21385;50.878;8.050;2023-05-07T11:36:34;24.70;93.20
35258;DHT22;21385;50.878;8.050;2023-05-07T11:39:00;24.90;92.80
35258;DHT22;21385;50.878;8.050;2023-05-07T11:41:37;25.20;93.40
35258;DHT22;21385;50.878;8.050;2023-05-07T11:44:03;25.50;94.40
35258;DHT22;21385;50.878;8.050;2023-05-07T11:46:29;25.90;92.10
35258;DHT22;21385;50.878;8.050;2023-05-07T11:48:56;25.90;91.00
35258;DHT22;21385;50.878;8.050;2023-05-07T11:51:23;25.90;91.00
35258;DHT22;21385;50.878;8.050;2023-05-07T11:53:50;25.70;90.80
35258;DHT22;21385;50.878;8.050;2023-05-07T11:56:17;25.50;91.40
35258;DHT22;21385;50.878;8.050;2023-05-07T11:58:44;25.40;92.20
35258;DHT22;21385;50.878;8.050;2023-05-07T12:01:11;25.30;91.40
35258;DHT22;21385;50.878;8.050;2023-05-07T12:03:39;25.10;91.30
35258;DHT22;21385;50.878;8.050;2023-05-07T12:06:08;24.90;92.10
35258;DHT22;21385;50.878;8.050;2023-05-07T12:08:36;24.70;92.20
35258;DHT22;21385;50.878;8.050;2023-05-07T12:11:03;24.50;92.50
35258;DHT22;21385;50.878;8.050;2023-05-07T12:13:28;24.30;92.80
35258;DHT22;21385;50.878;8.050;2023-05-07T12:15:55;24.20;93.20
35258;DHT22;21385;50.878;8.050;2023-05-07T12:18:22;24.10;93.50
35258;DHT22;21385;50.878;8.050;2023-05-07T12:20:48;24.10;93.80
35258;DHT22;21385;50.878;8.050;2023-05-07T12:23:15;24.00;93.80
35258;DHT22;21385;50.878;8.050;2023-05-07T12:25:41;23.90;93.30
35258;DHT22;21385;50.878;8.050;2023-05-07T12:28:15;23.70;93.70
35258;DHT22;21385;50.878;8.050;2023-05-07T12:30:46;23.50;93.50
35258;DHT22;21385;50.878;8.050;2023-05-07T12:33:19;23.30;93.80
35258;DHT22;21385;50.878;8.050;2023-05-07T12:35:48;23.30;93.80
35258;DHT22;21385;50.878;8.050;2023-05-07T12:38:16;23.20;94.10
35258;DHT22;21385;50.878;8.050;2023-05-07T12:43:18;23.10;95.60
35258;DHT22;21385;50.878;8.050;2023-05-07T12:45:45;23.10;96.10
35258;DHT22;21385;50.878;8.050;2023-05-07T12:48:12;23.20;97.20
35258;DHT22;21385;50.878;8.050;2023-05-07T12:50:37;23.20;97.50
35258;DHT22;21385;50.878;8.050;2023-05-07T12:53:04;23.20;98.00
35258;DHT22;21385;50.878;8.050;2023-05-07T12:55:31;23.20;98.70
35258;DHT22;21385;50.878;8.050;2023-05-07T12:58:00;23.10;99.90
35258;DHT22;21385;50.878;8.050;2023-05-07T13:00:37;23.10;99.90
35258;DHT22;21385;50.878;8.050;2023-05-07T13:03:03;23.00;99.90
35258;DHT22;21385;50.878;8.050;2023-05-07T13:05:28;23.00;99.90
35258;DHT22;21385;50.878;8.050;2023-05-07T13:07:55;23.00;99.90
35258;DHT22;21385;50.878;8.050;2023-05-07T13:10:22;22.80;99.90
35258;DHT22;21385;50.878;8.050;2023-05-07T13:12:48;22.60;99.90
35258;DHT22;21385;50.878;8.050;2023-05-07T13:15:14;22.60;99.90
35258;DHT22;21385;50.878;8.050;2023-05-07T13:17:39;22.50;99.90
35258;DHT22;21385;50.878;8.050;2023-05-07T13:20:05;22.60;99.90
35258;DHT22;21385;50.878;8.050;2023-05-07T13:22:32;22.50;99.90
35258;DHT22;21385;50.878;8.050;2023-05-07T13:24:57;22.50;99.90
35258;DHT22;21385;50.878;8.050;2023-05-07T13:27:23;22.50;99.90
35258;DHT22;21385;50.878;8.050;2023-05-07T13:29:48;22.40;99.90
35258;DHT22;21385;50.878;8.050;2023-05-07T13:32:14;22.50;99.90
35258;DHT22;21385;50.878;8.050;2023-05-07T13:34:39;22.50;99.90
35258;DHT22;21385;50.878;8.050;2023-05-07T13:37:06;22.60;99.90
35258;DHT22;21385;50.878;8.050;2023-05-07T13:39:33;22.60;99.90
35258;DHT22;21385;50.878;8.050;2023-05-07T13:41:58;22.60;99.90
35258;DHT22;21385;50.878;8.050;2023-05-07T13:44:24;22.50;99.90
35258;DHT22;21385;50.878;8.050;2023-05-07T13:46:49;22.60;99.90
35258;DHT22;21385;50.878;8.050;2023-05-07T13:49:15;22.60;99.90
35258;DHT22;21385;50.878;8.050;2023-05-07T13:51:41;22.60;99.70
35258;DHT22;21385;50.878;8.050;2023-05-07T13:54:06;22.60;99.90
35258;DHT22;21385;50.878;8.050;2023-05-07T13:56:32;22.60;99.00
35258;DHT22;21385;50.878;8.050;2023-05-07T13:58:58;22.50;98.80
35258;DHT22;21385;50.878;8.050;2023-05-07T14:01:24;22.40;99.40
35258;DHT22;21385;50.878;8.050;2023-05-07T14:03:49;22.40;99.40
35258;DHT22;21385;50.878;8.050;2023-05-07T14:06:15;22.40;99.90
35258;DHT22;21385;50.878;8.050;2023-05-07T14:08:40;22.40;99.00
35258;DHT22;21385;50.878;8.050;2023-05-07T14:11:06;22.40;99.00
35258;DHT22;21385;50.878;8.050;2023-05-07T14:13:32;22.40;98.60
35258;DHT22;21385;50.878;8.050;2023-05-07T14:15:58;22.40;98.60
35258;DHT22;21385;50.878;8.050;2023-05-07T14:18:23;22.40;99.20
35258;DHT22;21385;50.878;8.050;2023-05-07T14:20:49;22.40;99.00
35258;DHT22;21385;50.878;8.050;2023-05-07T14:23:15;22.30;98.50
35258;DHT22;21385;50.878;8.050;2023-05-07T14:25:42;22.30;98.30
35258;DHT22;21385;50.878;8.050;2023-05-07T14:28:08;22.20;98.50
35258;DHT22;21385;50.878;8.050;2023-05-07T14:30:34;22.20;99.20
35258;DHT22;21385;50.878;8.050;2023-05-07T14:33:00;22.30;99.20
35258;DHT22;21385;50.878;8.050;2023-05-07T14:35:26;22.30;98.00
35258;DHT22;21385;50.878;8.050;2023-05-07T14:37:51;22.20;99.30
35258;DHT22;21385;50.878;8.050;2023-05-07T14:40:17;22.00;99.90
35258;DHT22;21385;50.878;8.050;2023-05-07T14:42:42;21.90;99.90
35258;DHT22;21385;50.878;8.050;2023-05-07T14:45:08;21.80;99.90
35258;DHT22;21385;50.878;8.050;2023-05-07T14:47:34;21.70;99.90
35258;DHT22;21385;50.878;8.050;2023-05-07T14:50:00;21.60;99.90
35258;DHT22;21385;50.878;8.050;2023-05-07T14:52:26;21.60;99.90
35258;DHT22;21385;50.878;8.050;2023-05-07T14:54:52;21.40;99.90
35258;DHT22;21385;50.878;8.050;2023-05-07T14:57:18;21.30;99.90
35258;DHT22;21385;50.878;8.050;2023-05-07T14:59:44;21.10;99.90
35258;DHT22;21385;50.878;8.050;2023-05-07T15:02:11;21.00;99.90
35258;DHT22;21385;50.878;8.050;2023-05-07T15:04:37;21.00;99.90
35258;DHT22;21385;50.878;8.050;2023-05-07T15:07:11;21.00;99.90
35258;DHT22;21385;50.878;8.050;2023-05-07T15:09:40;20.90;99.90
35258;DHT22;21385;50.878;8.050;2023-05-07T15:12:06;21.00;99.90
35258;DHT22;21385;50.878;8.050;2023-05-07T15:14:31;21.00;99.90
35258;DHT22;21385;50.878;8.050;2023-05-07T15:16:57;21.00;99.90
35258;DHT22;21385;50.878;8.050;2023-05-07T15:19:23;21.00;99.90
35258;DHT22;21385;50.878;8.050;2023-05-07T15:21:50;20.90;99.90
35258;DHT22;21385;50.878;8.050;2023-05-07T15:24:16;20.80;99.90
35258;DHT22;21385;50.878;8.050;2023-05-07T15:26:41;20.70;99.90
35258;DHT22;21385;50.878;8.050;2023-05-07T15:29:07;20.60;99.90
35258;DHT22;21385;50.878;8.050;2023-05-07T15:31:35;20.50;99.90
35258;DHT22;21385;50.878;8.050;2023-05-07T15:34:02;20.50;99.90
35258;DHT22;21385;50.878;8.050;2023-05-07T15:36:28;20.30;99.90
35258;DHT22;21385;50.878;8.050;2023-05-07T15:38:53;20.20;99.90
35258;DHT22;21385;50.878;8.050;2023-05-07T15:41:20;20.10;99.90
35258;DHT22;21385;50.878;8.050;2023-05-07T15:43:50;20.00;99.90
35258;DHT22;21385;50.878;8.050;2023-05-07T15:46:20;20.00;99.90